Time;durP1;ratioP1;P1;durP2;ratioP2;P2;SDS_P1;SDS_P2;PMS_P1;PMS_P2;Temp;Humidity;BMP_temperature;BMP_pressure;BME280_temperature;BME280_humidity;BME280_pressure;Samples;Min_cycle;Max_cycle;Signal;HPM_P1;HPM_P2
2023/06/16 00:01:31;;;;;;;4.35;1.88;;;19.20;74.90;;;;;;5076664;28;20057;-82
2023/06/16 00:03:58;;;;;;;2.53;1.65;;;19.20;75.00;;;;;;5074730;28;20024;-83
2023/06/16 00:06:29;;;;;;;3.53;1.98;;;19.10;75.00;;;;;;5064884;28;20024;-85
2023/06/16 00:08:56;;;;;;;2.47;1.60;;;19.10;75.10;;;;;;5058005;28;20043;-83
2023/06/16 00:11:23;;;;;;;2.47;1.60;;;19.10;75.10;;;;;;5075419;28;20024;-82
2023/06/16 00:13:50;;;;;;;2.95;2.03;;;19.00;75.10;;;;;;5074630;28;20044;-83
2023/06/16 00:16:19;;;;;;;3.20;2.03;;;19.10;75.20;;;;;;5076860;28;20035;-84
2023/06/16 00:18:53;;;;;;;2.83;1.75;;;19.00;75.20;;;;;;5058774;28;20532;-84
2023/06/16 00:21:26;;;;;;;4.10;1.80;;;19.00;75.30;;;;;;5057984;28;20925;-85
2023/06/16 00:23:52;;;;;;;6.10;2.25;;;18.90;75.30;;;;;;5059049;28;20086;-82
2023/06/16 00:26:17;;;;;;;3.70;1.77;;;18.90;75.50;;;;;;5059514;28;20031;-83
2023/06/16 00:28:43;;;;;;;2.78;1.50;;;18.80;75.60;;;;;;5075180;28;20028;-82
2023/06/16 00:31:09;;;;;;;3.13;1.80;;;18.80;76.40;;;;;;5075770;28;20105;-84
2023/06/16 00:33:35;;;;;;;2.63;1.70;;;18.80;75.90;;;;;;5064102;28;20017;-82
2023/06/16 00:36:01;;;;;;;3.13;1.70;;;18.80;76.10;;;;;;5059970;28;20059;-83
2023/06/16 00:38:27;;;;;;;3.72;1.88;;;18.70;76.20;;;;;;5075503;28;20496;-84
2023/06/16 00:40:53;;;;;;;3.38;1.83;;;18.60;76.30;;;;;;5068471;28;20017;-86
2023/06/16 00:43:18;;;;;;;3.03;1.80;;;18.60;76.40;;;;;;5066261;28;20028;-82
2023/06/16 00:45:44;;;;;;;2.42;1.60;;;18.60;76.50;;;;;;5075573;28;20720;-83
2023/06/16 00:48:10;;;;;;;4.35;1.60;;;18.60;76.70;;;;;;5074345;28;20032;-84
2023/06/16 00:50:36;;;;;;;3.30;1.95;;;18.50;76.70;;;;;;5075603;28;20047;-84
2023/06/16 00:53:02;;;;;;;2.83;1.70;;;18.60;76.90;;;;;;5076131;28;20039;-82
2023/06/16 00:55:28;;;;;;;3.42;2.05;;;18.50;77.00;;;;;;5059440;28;20016;-84
2023/06/16 00:57:54;;;;;;;4.13;1.98;;;18.40;77.10;;;;;;5060685;28;20036;-83
2023/06/16 01:00:21;;;;;;;3.00;1.80;;;18.40;77.30;;;;;;5076305;28;20619;-83
2023/06/16 01:02:47;;;;;;;3.28;1.77;;;18.40;77.40;;;;;;5059886;28;20432;-83
2023/06/16 01:05:16;;;;;;;3.38;1.70;;;18.30;77.50;;;;;;5059855;28;20024;-83
2023/06/16 01:07:51;;;;;;;2.85;1.65;;;18.30;77.70;;;;;;5075655;28;20028;-84
2023/06/16 01:10:42;;;;;;;2.88;1.80;;;18.20;77.80;;;;;;5077048;28;20089;-84
2023/06/16 01:13:30;;;;;;;2.95;1.85;;;18.10;77.90;;;;;;5061401;28;20043;-85
2023/06/16 01:15:59;;;;;;;2.90;1.70;;;18.10;78.10;;;;;;5075465;28;20028;-84
2023/06/16 01:18:27;;;;;;;3.10;2.00;;;18.10;78.20;;;;;;5075374;28;20109;-84
2023/06/16 01:21:18;;;;;;;3.03;1.83;;;18.00;78.30;;;;;;5073966;28;20027;-85
2023/06/16 01:24:17;;;;;;;2.50;1.92;;;18.00;78.50;;;;;;5060132;28;20486;-85
2023/06/16 01:26:47;;;;;;;4.18;1.90;;;18.00;78.60;;;;;;5066833;28;20400;-84
2023/06/16 01:29:13;;;;;;;5.63;2.10;;;17.90;78.80;;;;;;5074908;28;20024;-81
2023/06/16 01:31:41;;;;;;;3.78;1.98;;;17.90;79.00;;;;;;5064520;28;20111;-83
2023/06/16 01:34:09;;;;;;;4.28;2.05;;;17.80;79.10;;;;;;5057915;28;20033;-84
2023/06/16 01:36:37;;;;;;;3.20;1.98;;;17.80;79.30;;;;;;5073862;28;21454;-83
2023/06/16 01:39:04;;;;;;;2.53;1.75;;;17.70;79.60;;;;;;5072245;28;20036;-84
2023/06/16 01:41:30;;;;;;;3.28;1.88;;;17.70;79.80;;;;;;5074076;28;20021;-81
2023/06/16 01:43:56;;;;;;;2.97;1.83;;;17.60;79.90;;;;;;5072894;28;20085;-82
2023/06/16 01:46:23;;;;;;;3.47;2.03;;;17.60;80.10;;;;;;5063667;28;20035;-84
2023/06/16 01:48:49;;;;;;;2.85;1.95;;;17.60;80.20;;;;;;5073651;28;20032;-83
2023/06/16 01:51:15;;;;;;;3.63;1.92;;;17.50;80.40;;;;;;5072707;28;20032;-84
2023/06/16 01:53:41;;;;;;;3.45;1.98;;;17.50;80.40;;;;;;5064665;28;20020;-82
2023/06/16 01:56:11;;;;;;;2.92;1.77;;;17.40;80.40;;;;;;5061082;28;20178;-84
2023/06/16 01:58:36;;;;;;;3.00;2.08;;;17.40;80.60;;;;;;5074581;28;20039;-83
2023/06/16 02:01:10;;;;;;;4.47;2.25;;;17.40;80.70;;;;;;5061266;28;20016;-82
2023/06/16 02:04:14;;;;;;;3.60;1.92;;;17.40;80.90;;;;;;5071929;28;20024;-83
2023/06/16 02:07:02;;;;;;;3.13;1.90;;;17.40;81.00;;;;;;5057495;28;20028;-84
2023/06/16 02:09:29;;;;;;;3.13;1.90;;;17.30;81.00;;;;;;5073162;28;20046;-83
2023/06/16 02:11:56;;;;;;;3.35;2.08;;;17.20;81.30;;;;;;5073326;28;20413;-82
2023/06/16 02:14:22;;;;;;;6.13;2.13;;;17.20;81.50;;;;;;5073693;28;20020;-84
2023/06/16 02:16:49;;;;;;;4.05;2.10;;;17.10;81.60;;;;;;5062366;28;20448;-83
2023/06/16 02:19:15;;;;;;;2.95;1.77;;;17.10;81.80;;;;;;5057954;28;20024;-84
2023/06/16 02:21:41;;;;;;;4.70;1.85;;;17.10;81.90;;;;;;5063431;28;20035;-84
2023/06/16 02:24:08;;;;;;;3.38;1.80;;;17.10;82.40;;;;;;5072962;28;20073;-83
2023/06/16 02:26:34;;;;;;;3.80;2.30;;;17.10;81.50;;;;;;5072051;28;20054;-82
2023/06/16 02:29:01;;;;;;;6.82;1.75;;;17.20;81.40;;;;;;5058320;28;20035;-83
2023/06/16 02:31:27;;;;;;;3.65;2.10;;;17.20;81.20;;;;;;5073670;28;20091;-82
2023/06/16 02:33:54;;;;;;;2.92;2.05;;;17.20;81.00;;;;;;5073602;28;20037;-83
2023/06/16 02:36:20;;;;;;;3.75;1.90;;;17.30;81.00;;;;;;5073004;28;20026;-84
2023/06/16 02:38:46;;;;;;;3.38;1.70;;;17.30;80.90;;;;;;5072832;28;20495;-82
2023/06/16 02:41:12;;;;;;;4.55;2.00;;;17.30;80.90;;;;;;5073677;28;20030;-85
2023/06/16 02:43:38;;;;;;;3.17;2.13;;;17.20;80.90;;;;;;5075050;28;20043;-82
2023/06/16 02:46:04;;;;;;;2.25;1.67;;;17.20;81.00;;;;;;5074112;28;20507;-85
2023/06/16 02:48:30;;;;;;;3.72;2.05;;;17.20;81.10;;;;;;5072331;28;20036;-84
2023/06/16 02:50:55;;;;;;;2.95;1.70;;;17.20;81.10;;;;;;5073042;28;20029;-85
2023/06/16 02:53:21;;;;;;;3.42;1.80;;;17.20;81.20;;;;;;5073954;28;20567;-84
2023/06/16 02:55:47;;;;;;;2.72;1.88;;;17.20;81.20;;;;;;5061859;28;20413;-84
2023/06/16 02:58:15;;;;;;;3.20;1.80;;;17.20;81.20;;;;;;5074618;28;20041;-82
2023/06/16 03:00:41;;;;;;;2.60;1.88;;;17.20;81.20;;;;;;5063327;28;20023;-83
2023/06/16 03:03:07;;;;;;;3.30;1.85;;;17.10;81.20;;;;;;5072755;28;20055;-84
2023/06/16 03:05:34;;;;;;;3.00;1.90;;;17.20;81.20;;;;;;5074063;28;20020;-84
2023/06/16 03:07:59;;;;;;;2.65;2.05;;;17.10;81.20;;;;;;5075796;28;20094;-85
2023/06/16 03:10:25;;;;;;;2.92;1.92;;;17.20;81.30;;;;;;5060016;28;20024;-84
2023/06/16 03:12:50;;;;;;;3.10;1.98;;;17.10;81.30;;;;;;5075160;28;20039;-82
2023/06/16 03:15:16;;;;;;;4.47;2.25;;;17.10;81.40;;;;;;5062088;28;20024;-84
2023/06/16 03:17:42;;;;;;;3.35;2.20;;;17.00;81.50;;;;;;5073006;28;20058;-83
2023/06/16 03:20:08;;;;;;;2.67;1.98;;;17.00;81.60;;;;;;5072346;28;20478;-83
2023/06/16 03:22:34;;;;;;;4.05;2.38;;;17.00;81.90;;;;;;5073463;28;20047;-84
2023/06/16 03:25:02;;;;;;;5.38;2.30;;;16.90;81.90;;;;;;5062601;28;20024;-82
2023/06/16 03:27:31;;;;;;;4.28;2.10;;;16.90;82.10;;;;;;5063015;28;20040;-82
2023/06/16 03:29:57;;;;;;;2.55;1.65;;;16.90;82.30;;;;;;5073217;28;20024;-82
2023/06/16 03:32:23;;;;;;;3.78;1.90;;;16.90;82.40;;;;;;5056726;28;20029;-83
2023/06/16 03:34:49;;;;;;;3.25;2.05;;;16.80;82.60;;;;;;5072468;28;20051;-82
2023/06/16 03:37:16;;;;;;;3.10;2.03;;;16.70;82.80;;;;;;5057034;28;20131;-82
2023/06/16 03:39:41;;;;;;;5.25;2.13;;;16.60;83.00;;;;;;5057382;28;20027;-83
2023/06/16 03:42:07;;;;;;;5.03;2.15;;;16.60;83.20;;;;;;5073275;28;20028;-83
2023/06/16 03:44:33;;;;;;;4.35;2.20;;;16.50;83.30;;;;;;5075503;28;20086;-83
2023/06/16 03:46:58;;;;;;;3.40;2.10;;;16.50;83.70;;;;;;5073684;28;20139;-83
2023/06/16 03:49:24;;;;;;;3.35;2.17;;;16.50;84.00;;;;;;5076161;28;20036;-85
2023/06/16 03:51:50;;;;;;;4.25;2.30;;;16.40;84.10;;;;;;5075912;28;20132;-81
2023/06/16 03:54:17;;;;;;;3.72;2.10;;;16.40;84.30;;;;;;5075851;28;20079;-81
2023/06/16 03:56:43;;;;;;;4.35;2.30;;;16.50;84.20;;;;;;5077778;28;20025;-84
2023/06/16 03:59:09;;;;;;;3.50;2.03;;;16.50;84.40;;;;;;5064141;28;20037;-83
2023/06/16 04:01:38;;;;;;;3.08;2.03;;;16.50;84.50;;;;;;5061665;28;20044;-82
2023/06/16 04:04:05;;;;;;;4.53;2.30;;;16.40;84.70;;;;;;5058856;28;20089;-83
2023/06/16 04:06:34;;;;;;;3.58;1.90;;;16.40;84.90;;;;;;5060067;28;20020;-83
2023/06/16 04:09:01;;;;;;;3.65;2.17;;;16.40;85.10;;;;;;5075837;28;21381;-83
2023/06/16 04:11:27;;;;;;;4.80;2.38;;;16.40;85.30;;;;;;5077219;28;20039;-84
2023/06/16 04:13:53;;;;;;;4.13;2.22;;;16.40;86.00;;;;;;5075862;28;20107;-82
2023/06/16 04:16:19;;;;;;;3.72;1.95;;;16.40;85.50;;;;;;5075206;28;20487;-83
2023/06/16 04:18:48;;;;;;;3.97;2.17;;;16.40;85.50;;;;;;5073896;28;20027;-82
2023/06/16 04:21:14;;;;;;;4.20;2.30;;;16.40;85.50;;;;;;5060314;28;20024;-84
2023/06/16 04:23:40;;;;;;;3.40;1.98;;;16.40;85.60;;;;;;5059644;28;20134;-82
2023/06/16 04:26:07;;;;;;;3.70;2.33;;;16.40;85.70;;;;;;5067349;28;20047;-84
2023/06/16 04:28:33;;;;;;;3.30;2.20;;;16.40;85.80;;;;;;5075518;28;20041;-84
2023/06/16 04:31:00;;;;;;;3.00;2.10;;;16.40;85.90;;;;;;5074791;28;20020;-82
2023/06/16 04:33:26;;;;;;;5.30;2.00;;;16.40;86.10;;;;;;5075941;28;20543;-82
2023/06/16 04:35:52;;;;;;;3.45;2.17;;;16.40;86.20;;;;;;5065928;28;20031;-83
2023/06/16 04:38:19;;;;;;;3.78;2.25;;;16.40;86.30;;;;;;5076502;28;20044;-83
2023/06/16 04:40:45;;;;;;;2.95;1.85;;;16.40;86.40;;;;;;5076204;28;21111;-85
2023/06/16 04:43:11;;;;;;;3.17;1.95;;;16.40;86.50;;;;;;5063046;28;20076;-84
2023/06/16 04:45:36;;;;;;;3.40;2.28;;;16.40;86.50;;;;;;5075251;28;20541;-82
2023/06/16 04:48:02;;;;;;;4.22;2.20;;;16.50;86.70;;;;;;5075232;28;20036;-84
2023/06/16 04:50:28;;;;;;;4.72;2.40;;;16.50;86.80;;;;;;5066973;28;20056;-85
2023/06/16 04:52:54;;;;;;;3.67;2.10;;;16.50;86.80;;;;;;5064709;28;20088;-84
2023/06/16 04:55:20;;;;;;;3.55;2.25;;;16.60;86.80;;;;;;5076420;28;20486;-83
2023/06/16 04:57:46;;;;;;;4.63;2.70;;;16.60;86.80;;;;;;5064449;28;20038;-82
2023/06/16 05:00:12;;;;;;;2.97;2.05;;;16.60;86.80;;;;;;5064791;28;20486;-83
2023/06/16 05:02:40;;;;;;;5.00;2.33;;;16.60;86.80;;;;;;5075111;28;20092;-84
2023/06/16 05:05:06;;;;;;;4.10;2.38;;;16.70;87.50;;;;;;5065751;28;20994;-84
2023/06/16 05:07:31;;;;;;;3.67;2.17;;;16.70;86.90;;;;;;5061575;28;20147;-83
2023/06/16 05:09:57;;;;;;;3.42;1.92;;;16.70;86.90;;;;;;5079176;28;20450;-84
2023/06/16 05:12:25;;;;;;;3.40;2.30;;;16.80;87.00;;;;;;5075737;28;20089;-83
2023/06/16 05:14:51;;;;;;;3.40;1.90;;;16.80;87.00;;;;;;5058363;28;20012;-81
2023/06/16 05:17:17;;;;;;;3.42;2.10;;;16.90;86.80;;;;;;5061802;28;20393;-82
2023/06/16 05:19:42;;;;;;;3.58;1.90;;;17.00;86.70;;;;;;5060042;28;20549;-81
2023/06/16 05:22:08;;;;;;;2.85;1.85;;;17.10;86.50;;;;;;5072863;28;20032;-82
2023/06/16 05:24:33;;;;;;;4.70;2.20;;;17.10;86.40;;;;;;5073825;28;20559;-82
2023/06/16 05:26:59;;;;;;;3.10;1.90;;;17.30;86.30;;;;;;5063604;28;20472;-84
2023/06/16 05:29:25;;;;;;;2.80;1.80;;;17.30;86.10;;;;;;5073311;28;20032;-82
2023/06/16 05:31:50;;;;;;;3.20;1.88;;;17.40;86.00;;;;;;5063592;28;20489;-82
2023/06/16 05:34:16;;;;;;;3.55;2.10;;;17.50;85.80;;;;;;5062400;28;20059;-82
2023/06/16 05:36:41;;;;;;;3.90;2.03;;;17.50;85.60;;;;;;5072521;28;20056;-80
2023/06/16 05:39:08;;;;;;;3.38;2.10;;;17.60;85.50;;;;;;5059252;28;20016;-82
2023/06/16 05:41:34;;;;;;;3.65;2.20;;;17.60;85.30;;;;;;5057553;28;20790;-82
2023/06/16 05:44:00;;;;;;;3.42;2.35;;;17.70;85.30;;;;;;5070204;28;20031;-80
2023/06/16 05:46:26;;;;;;;4.15;2.42;;;17.80;85.20;;;;;;5061156;28;20024;-80
2023/06/16 05:48:52;;;;;;;4.53;2.50;;;17.90;85.10;;;;;;5055111;28;20036;-79
2023/06/16 05:51:17;;;;;;;3.08;2.00;;;17.90;84.90;;;;;;5063170;28;20020;-80
2023/06/16 05:53:43;;;;;;;3.33;2.00;;;18.00;84.80;;;;;;5071994;28;20118;-81
2023/06/16 05:56:08;;;;;;;3.80;2.13;;;18.10;84.70;;;;;;5075272;28;20034;-81
2023/06/16 05:58:35;;;;;;;2.80;2.00;;;18.10;84.40;;;;;;5071842;28;20713;-80
2023/06/16 06:01:13;;;;;;;2.95;2.13;;;18.20;84.30;;;;;;5069762;28;20020;-81
2023/06/16 06:03:46;;;;;;;2.13;1.75;;;18.20;84.10;;;;;;5071130;28;20523;-81
2023/06/16 06:06:12;;;;;;;;;;;18.30;84.00;;;;;;5056213;28;20079;-81
2023/06/16 06:08:37;;;;;;;2.92;1.83;;;18.30;83.90;;;;;;5071141;28;20297;-80
2023/06/16 06:11:06;;;;;;;3.05;1.70;;;18.30;83.70;;;;;;5072993;28;20032;-81
2023/06/16 06:13:32;;;;;;;3.10;1.88;;;18.40;83.50;;;;;;5072652;28;20665;-82
2023/06/16 06:15:58;;;;;;;2.40;1.60;;;18.40;83.40;;;;;;5058574;28;20024;-83
2023/06/16 06:18:23;;;;;;;3.25;1.77;;;18.40;83.30;;;;;;5065295;28;20524;-81
2023/06/16 06:20:49;;;;;;;3.80;1.80;;;18.40;83.20;;;;;;5069660;28;20085;-81
2023/06/16 06:23:15;;;;;;;3.45;1.73;;;18.50;83.20;;;;;;5069747;28;20054;-81
2023/06/16 06:25:42;;;;;;;3.58;1.67;;;18.50;83.00;;;;;;5059064;28;20028;-79
2023/06/16 06:28:08;;;;;;;2.72;1.60;;;18.60;82.90;;;;;;5068563;28;20075;-83
2023/06/16 06:30:33;;;;;;;3.28;2.05;;;18.70;82.80;;;;;;5070321;28;20709;-80
2023/06/16 06:33:00;;;;;;;2.67;1.65;;;18.70;82.70;;;;;;5060069;28;20028;-81
2023/06/16 06:35:25;;;;;;;4.93;2.10;;;18.80;82.70;;;;;;5071251;28;20100;-79
2023/06/16 06:37:51;;;;;;;4.07;1.83;;;18.90;82.70;;;;;;5058750;28;20159;-82
2023/06/16 06:40:17;;;;;;;4.20;2.00;;;18.90;82.70;;;;;;5058315;28;20424;-82
2023/06/16 06:42:42;;;;;;;4.63;2.08;;;18.90;82.70;;;;;;5056990;28;20032;-82
2023/06/16 06:45:11;;;;;;;3.92;1.70;;;18.90;82.80;;;;;;5072695;28;20024;-82
2023/06/16 06:47:37;;;;;;;2.70;1.63;;;18.90;82.90;;;;;;5071862;28;20481;-81
2023/06/16 06:50:03;;;;;;;3.13;1.80;;;18.90;82.90;;;;;;5071980;28;20093;-82
2023/06/16 06:52:29;;;;;;;2.28;1.60;;;18.90;82.90;;;;;;5070151;28;20053;-81
2023/06/16 06:54:56;;;;;;;4.20;1.80;;;19.00;83.10;;;;;;5076206;28;20020;-81
2023/06/16 06:57:22;;;;;;;2.83;1.70;;;19.00;83.30;;;;;;5073357;28;20032;-81
2023/06/16 06:59:48;;;;;;;3.75;1.77;;;19.00;83.30;;;;;;5073509;28;20047;-82
2023/06/16 07:02:14;;;;;;;3.65;2.08;;;19.00;83.20;;;;;;5060319;28;20089;-82
2023/06/16 07:04:40;;;;;;;2.60;1.80;;;19.00;83.20;;;;;;5062461;28;20570;-82
2023/06/16 07:07:07;;;;;;;3.72;2.15;;;19.00;83.20;;;;;;5069495;28;20043;-82
2023/06/16 07:09:33;;;;;;;3.63;1.83;;;19.10;83.20;;;;;;5063568;28;20032;-83
2023/06/16 07:11:58;;;;;;;3.78;1.75;;;19.10;83.10;;;;;;5070300;28;20393;-83
2023/06/16 07:14:24;;;;;;;5.05;2.40;;;19.10;83.00;;;;;;5070105;28;20024;-81
2023/06/16 07:16:50;;;;;;;3.85;1.80;;;19.20;83.00;;;;;;5054243;28;20041;-81
2023/06/16 07:19:15;;;;;;;2.92;1.90;;;19.30;82.90;;;;;;5071878;28;20047;-80
2023/06/16 07:21:41;;;;;;;3.55;1.80;;;19.40;82.90;;;;;;5074465;28;20051;-81
2023/06/16 07:24:06;;;;;;;2.90;2.00;;;19.40;82.80;;;;;;5060108;28;21183;-81
2023/06/16 07:26:32;;;;;;;3.00;1.92;;;19.50;82.80;;;;;;5057024;28;20033;-80
2023/06/16 07:28:59;;;;;;;3.22;2.20;;;19.60;82.70;;;;;;5071393;28;20047;-82
2023/06/16 07:31:24;;;;;;;2.22;1.63;;;19.70;82.30;;;;;;5072782;28;20106;-81
2023/06/16 07:33:50;;;;;;;4.07;1.85;;;19.80;82.30;;;;;;5073559;28;20036;-81
2023/06/16 07:36:16;;;;;;;3.53;1.90;;;19.90;82.30;;;;;;5074011;28;20024;-81
2023/06/16 07:38:41;;;;;;;3.30;2.00;;;19.90;82.10;;;;;;5072309;28;20115;-80
2023/06/16 07:41:07;;;;;;;3.90;1.90;;;20.00;81.60;;;;;;5072824;28;20047;-81
2023/06/16 07:43:33;;;;;;;3.70;2.10;;;20.10;81.10;;;;;;5057750;28;20147;-80
2023/06/16 07:45:59;;;;;;;3.00;1.83;;;20.20;80.80;;;;;;5062739;28;20211;-81
2023/06/16 07:48:24;;;;;;;2.63;1.55;;;20.20;80.50;;;;;;5074835;28;20500;-82
2023/06/16 07:50:50;;;;;;;2.85;1.95;;;20.30;80.30;;;;;;5063343;28;20020;-82
2023/06/16 07:53:16;;;;;;;2.30;1.70;;;20.40;79.80;;;;;;5063791;28;20543;-81
2023/06/16 07:55:41;;;;;;;2.70;1.88;;;20.40;79.70;;;;;;5074653;28;20519;-81
2023/06/16 07:58:07;;;;;;;2.08;1.48;;;20.50;79.50;;;;;;5066251;28;20044;-81
2023/06/16 08:00:33;;;;;;;2.45;1.55;;;20.60;79.50;;;;;;5063674;28;20024;-82
2023/06/16 08:02:58;;;;;;;2.42;1.70;;;20.70;79.40;;;;;;5063088;28;20036;-83
2023/06/16 08:05:24;;;;;;;3.03;1.90;;;20.70;79.00;;;;;;5055289;28;20038;-83
2023/06/16 08:07:49;;;;;;;3.53;1.60;;;20.80;78.60;;;;;;5062940;28;20036;-83
2023/06/16 08:10:20;;;;;;;3.88;1.73;;;20.90;78.40;;;;;;5075704;28;20469;-83
2023/06/16 08:12:49;;;;;;;2.10;1.50;;;20.90;78.20;;;;;;5075378;28;20056;-82
2023/06/16 08:15:16;;;;;;;3.53;1.80;;;21.00;78.10;;;;;;5074914;28;20500;-83
2023/06/16 08:17:42;;;;;;;2.38;1.73;;;21.10;77.90;;;;;;5077630;28;20028;-85
2023/06/16 08:20:09;;;;;;;2.75;1.85;;;21.20;77.60;;;;;;5078515;28;20542;-83
2023/06/16 08:22:34;;;;;;;2.33;1.70;;;21.30;77.40;;;;;;5063106;28;20040;-83
2023/06/16 08:25:01;;;;;;;3.90;1.80;;;21.40;77.00;;;;;;5076884;28;20024;-84
2023/06/16 08:27:26;;;;;;;2.60;1.65;;;21.50;76.70;;;;;;5076062;28;20125;-83
2023/06/16 08:29:52;;;;;;;3.55;1.80;;;21.50;76.60;;;;;;5071100;28;20541;-81
2023/06/16 08:32:18;;;;;;;2.35;1.77;;;21.50;76.20;;;;;;5064784;28;21152;-85
2023/06/16 08:34:43;;;;;;;3.03;1.58;;;21.70;76.00;;;;;;5060674;28;20020;-84
2023/06/16 08:37:09;;;;;;;2.05;1.63;;;21.80;75.90;;;;;;5064653;28;20028;-86
2023/06/16 08:39:35;;;;;;;3.42;1.75;;;21.90;75.60;;;;;;5072526;28;20023;-86
2023/06/16 08:42:02;;;;;;;3.25;1.73;;;22.00;75.30;;;;;;5075880;28;20040;-86
2023/06/16 08:44:30;;;;;;;3.17;1.67;;;22.10;75.30;;;;;;5076650;28;20013;-86
2023/06/16 08:46:57;;;;;;;2.85;1.60;;;22.20;75.10;;;;;;5065343;28;20119;-83
2023/06/16 08:49:24;;;;;;;3.90;1.73;;;22.30;75.00;;;;;;5076763;28;20021;-85
2023/06/16 08:51:50;;;;;;;2.65;1.95;;;22.40;74.90;;;;;;5076546;28;20020;-87
2023/06/16 08:54:17;;;;;;;3.20;1.90;;;22.40;74.70;;;;;;5062430;28;20127;-84
2023/06/16 08:56:43;;;;;;;3.17;2.08;;;22.60;74.40;;;;;;5059340;28;20055;-83
2023/06/16 08:59:11;;;;;;;2.42;1.73;;;22.70;74.10;;;;;;5075172;28;20035;-84
2023/06/16 09:01:40;;;;;;;2.97;1.80;;;22.80;73.70;;;;;;5074359;28;20077;-84
2023/06/16 09:04:09;;;;;;;2.95;1.83;;;22.90;73.70;;;;;;5073018;28;20025;-84
2023/06/16 09:06:43;;;;;;;2.03;1.67;;;23.00;73.50;;;;;;5075245;28;20028;-85
2023/06/16 09:09:09;;;;;;;3.03;1.75;;;23.10;73.40;;;;;;5074684;28;20097;-85
2023/06/16 09:11:35;;;;;;;3.58;2.08;;;23.20;73.20;;;;;;5064678;28;20075;-83
2023/06/16 09:14:11;;;;;;;4.30;2.33;;;23.30;72.50;;;;;;5058701;28;20024;-83
2023/06/16 09:16:39;;;;;;;4.90;2.60;;;23.40;72.40;;;;;;5076156;28;20028;-85
2023/06/16 09:19:09;;;;;;;3.00;2.05;;;23.50;72.20;;;;;;5072044;28;20779;-83
2023/06/16 09:21:35;;;;;;;3.22;2.50;;;23.60;71.70;;;;;;5073153;28;20044;-83
2023/06/16 09:24:01;;;;;;;3.42;2.28;;;23.80;71.40;;;;;;5063630;28;20481;-82
2023/06/16 09:26:35;;;;;;;3.42;2.38;;;24.00;70.70;;;;;;5059682;28;20021;-80
2023/06/16 09:29:03;;;;;;;3.90;2.60;;;24.00;70.10;;;;;;5073147;28;20028;-81
2023/06/16 09:31:28;;;;;;;3.47;2.50;;;24.10;69.60;;;;;;5058176;28;20028;-84
2023/06/16 09:34:06;;;;;;;3.28;2.35;;;24.60;70.00;;;;;;5071577;28;20036;-82
2023/06/16 09:36:32;;;;;;;2.08;1.80;;;25.70;69.50;;;;;;5072510;28;20034;-83
2023/06/16 09:38:57;;;;;;;4.60;2.25;;;26.90;68.90;;;;;;5070258;28;20397;-82
2023/06/16 09:41:23;;;;;;;2.85;2.08;;;28.00;67.70;;;;;;5071964;28;20028;-83
2023/06/16 09:43:50;;;;;;;3.63;1.98;;;28.90;66.90;;;;;;5056105;28;20101;-83
2023/06/16 09:46:15;;;;;;;2.03;1.63;;;29.60;66.10;;;;;;5057172;28;20035;-87
2023/06/16 09:48:59;;;;;;;2.25;1.92;;;30.30;64.80;;;;;;5068043;28;20059;-83
2023/06/16 09:51:24;;;;;;;2.60;1.58;;;30.90;63.90;;;;;;5058260;28;20024;-83
2023/06/16 09:53:51;;;;;;;3.15;1.98;;;31.40;63.90;;;;;;5055619;28;20050;-84
2023/06/16 09:56:19;;;;;;;3.28;2.00;;;31.70;62.80;;;;;;5059223;28;20181;-86
2023/06/16 09:58:46;;;;;;;2.88;1.92;;;31.80;62.10;;;;;;5071379;28;20036;-88
2023/06/16 10:01:14;;;;;;;2.00;1.65;;;31.90;61.70;;;;;;5072869;28;20020;-85
2023/06/16 10:03:41;;;;;;;3.50;1.75;;;32.30;61.40;;;;;;5057160;28;20055;-86
2023/06/16 10:06:19;;;;;;;3.25;1.80;;;32.60;60.90;;;;;;5075451;28;20099;-86
2023/06/16 10:08:47;;;;;;;2.95;2.20;;;32.90;60.60;;;;;;5074625;28;20135;-84
2023/06/16 10:11:15;;;;;;;1.85;1.40;;;33.10;59.90;;;;;;5061035;28;20040;-85
2023/06/16 10:13:44;;;;;;;2.40;1.52;;;33.20;59.90;;;;;;5071025;28;22351;-83
2023/06/16 10:16:12;;;;;;;2.03;1.60;;;33.60;59.50;;;;;;5054063;28;20024;-83
2023/06/16 10:18:41;;;;;;;2.30;1.55;;;33.70;59.30;;;;;;5067489;28;20059;-84
2023/06/16 10:21:08;;;;;;;2.42;1.73;;;34.00;59.20;;;;;;5051169;28;20680;-83
2023/06/16 10:23:34;;;;;;;2.38;1.80;;;34.20;58.40;;;;;;5057546;28;20044;-82
2023/06/16 10:26:00;;;;;;;2.03;1.60;;;34.50;58.00;;;;;;5069660;28;20035;-82
2023/06/16 10:28:26;;;;;;;2.00;1.30;;;34.60;57.50;;;;;;5053388;28;20570;-85
2023/06/16 10:30:53;;;;;;;2.45;2.10;;;34.70;57.30;;;;;;5074900;28;20165;-82
2023/06/16 10:33:25;;;;;;;2.03;1.52;;;34.90;57.20;;;;;;5069783;28;20057;-82
2023/06/16 10:35:52;;;;;;;2.42;1.80;;;35.10;56.80;;;;;;5060608;28;20024;-81
2023/06/16 10:38:22;;;;;;;3.70;1.88;;;35.30;56.80;;;;;;5063601;28;20065;-81
2023/06/16 10:40:50;;;;;;;2.45;1.80;;;35.50;56.30;;;;;;5070984;28;20099;-82
2023/06/16 10:43:26;;;;;;;2.53;1.75;;;35.60;56.20;;;;;;5054734;28;20062;-84
2023/06/16 10:46:12;;;;;;;2.28;1.65;;;35.80;55.70;;;;;;5070322;28;20032;-82
2023/06/16 10:49:09;;;;;;;1.98;1.77;;;35.70;55.30;;;;;;5062881;28;20043;-83
2023/06/16 10:51:45;;;;;;;1.95;1.55;;;35.50;54.90;;;;;;5069192;28;20113;-84
2023/06/16 10:54:13;;;;;;;2.05;1.70;;;35.60;54.90;;;;;;5074933;28;20032;-83
2023/06/16 10:57:02;;;;;;;2.35;1.60;;;35.80;54.60;;;;;;5074977;28;20032;-83
2023/06/16 10:59:28;;;;;;;2.33;1.83;;;35.90;54.30;;;;;;5074826;28;20039;-84
2023/06/16 11:01:58;;;;;;;3.15;2.00;;;35.80;54.00;;;;;;5065940;28;20040;-83
2023/06/16 11:04:24;;;;;;;2.10;1.50;;;36.10;54.10;;;;;;5078134;28;20032;-84
2023/06/16 11:07:07;;;;;;;2.10;1.63;;;36.30;53.90;;;;;;5078477;28;20028;-83
2023/06/16 11:09:32;;;;;;;;;;;36.40;53.70;;;;;;5064531;28;20036;-85
2023/06/16 11:11:59;;;;;;;3.17;1.77;;;36.20;54.10;;;;;;5067818;28;19916;-85
2023/06/16 11:14:25;;;;;;;2.47;1.80;;;36.00;54.00;;;;;;5068421;28;20240;-85
2023/06/16 11:16:51;;;;;;;2.65;1.92;;;36.10;53.70;;;;;;5076703;28;20054;-85
2023/06/16 11:19:21;;;;;;;2.33;1.70;;;36.40;53.50;;;;;;5064364;28;20821;-85
2023/06/16 11:21:46;;;;;;;2.60;2.00;;;36.50;52.20;;;;;;5061624;28;20054;-84
2023/06/16 11:24:13;;;;;;;3.13;1.88;;;36.20;52.60;;;;;;5061414;28;20563;-83
2023/06/16 11:26:39;;;;;;;1.85;1.65;;;36.10;52.50;;;;;;5078122;28;20081;-83
2023/06/16 11:29:06;;;;;;;4.43;2.33;;;36.10;52.50;;;;;;5064292;28;20436;-85
2023/06/16 11:31:35;;;;;;;4.05;2.50;;;36.30;52.10;;;;;;5079725;28;20511;-85
2023/06/16 11:34:04;;;;;;;2.55;2.15;;;36.50;52.00;;;;;;5061424;28;20044;-85
2023/06/16 11:36:30;;;;;;;4.05;2.40;;;36.70;51.70;;;;;;5064155;28;20111;-86
2023/06/16 11:38:56;;;;;;;2.65;2.25;;;36.60;51.10;;;;;;5068407;28;20115;-84
2023/06/16 11:41:23;;;;;;;3.47;2.50;;;36.90;51.10;;;;;;5080793;28;20036;-84
2023/06/16 11:43:53;;;;;;;4.10;2.10;;;37.10;50.90;;;;;;5080317;28;20020;-86
2023/06/16 11:46:23;;;;;;;2.90;2.03;;;37.40;51.20;;;;;;5069353;28;20028;-85
2023/06/16 11:48:50;;;;;;;4.18;1.92;;;37.60;50.90;;;;;;5063503;28;20050;-84
2023/06/16 11:51:16;;;;;;;2.30;1.88;;;37.80;50.70;;;;;;5078418;28;20700;-85
2023/06/16 11:53:43;;;;;;;2.65;2.20;;;37.80;50.70;;;;;;5067599;28;20030;-84
2023/06/16 11:56:15;;;;;;;2.47;1.90;;;37.80;50.60;;;;;;5060919;28;20036;-84
2023/06/16 11:58:45;;;;;;;2.85;2.42;;;37.70;50.40;;;;;;5076941;28;20058;-84
2023/06/16 12:01:15;;;;;;;2.95;2.17;;;37.00;50.60;;;;;;5067449;28;20473;-84
2023/06/16 12:03:42;;;;;;;4.55;2.25;;;35.90;50.50;;;;;;5067705;28;20032;-85
2023/06/16 12:06:08;;;;;;;3.50;2.00;;;35.00;51.00;;;;;;5064304;28;20104;-85
2023/06/16 12:08:41;;;;;;;3.40;2.20;;;34.20;51.80;;;;;;5074723;28;20101;-84
2023/06/16 12:11:11;;;;;;;3.70;2.70;;;34.40;52.20;;;;;;5075498;28;20028;-84
2023/06/16 12:13:37;;;;;;;3.90;2.42;;;34.20;52.00;;;;;;5075341;28;20024;-83
2023/06/16 12:16:04;;;;;;;3.58;2.40;;;34.60;52.10;;;;;;5075420;28;20700;-84
2023/06/16 12:18:30;;;;;;;2.80;2.38;;;35.30;51.20;;;;;;5065622;28;20031;-85
2023/06/16 12:20:56;;;;;;;2.65;2.22;;;35.90;51.40;;;;;;5061298;28;20493;-84
2023/06/16 12:23:22;;;;;;;2.63;2.03;;;36.60;51.20;;;;;;5076275;28;20048;-84
2023/06/16 12:25:48;;;;;;;2.35;2.10;;;37.40;50.90;;;;;;5074697;28;20020;-84
2023/06/16 12:28:18;;;;;;;3.70;2.20;;;38.00;50.70;;;;;;5063827;28;20029;-84
2023/06/16 12:30:44;;;;;;;3.08;2.00;;;38.30;49.70;;;;;;5059788;28;20028;-86
2023/06/16 12:33:12;;;;;;;2.58;2.10;;;38.00;50.00;;;;;;5074468;28;20081;-84
2023/06/16 12:35:38;;;;;;;2.80;2.22;;;37.30;50.00;;;;;;5066084;28;20482;-83
2023/06/16 12:38:04;;;;;;;4.47;3.17;;;36.30;50.30;;;;;;5074231;28;20036;-85
2023/06/16 12:40:33;;;;;;;3.63;2.75;;;35.30;50.80;;;;;;5074594;28;20032;-85
2023/06/16 12:43:21;;;;;;;3.28;2.50;;;34.40;51.10;;;;;;5075056;28;20024;-85
2023/06/16 12:45:46;;;;;;;2.60;2.20;;;33.60;51.40;;;;;;5074400;28;20027;-85
2023/06/16 12:48:12;;;;;;;4.10;3.08;;;33.00;52.00;;;;;;5075719;28;20032;-86
2023/06/16 12:50:38;;;;;;;4.55;3.65;;;32.70;52.30;;;;;;5077457;28;20016;-84